Time;durP1;ratioP1;P1;durP2;ratioP2;P2;SDS_P1;SDS_P2;PMS_P1;PMS_P2;Temp;Humidity;BMP_temperature;BMP_pressure;BME280_temperature;BME280_humidity;BME280_pressure;Samples;Min_cycle;Max_cycle;Signal;HPM_P1;HPM_P2
2020/12/06 00:00:12;;;;;;;64.57;40.10;;;1.00;99.90;;;;;;5017600;28;20441;-80
2020/12/06 00:02:39;;;;;;;65.30;40.20;;;1.00;99.90;;;;;;5015640;28;20466;-82
2020/12/06 00:05:08;;;;;;;63.87;38.60;;;1.10;99.90;;;;;;5016763;28;20522;-79
2020/12/06 00:07:35;;;;;;;71.77;41.60;;;1.20;99.90;;;;;;5016525;28;20534;-79
2020/12/06 00:10:02;;;;;;;72.20;44.00;;;1.10;99.90;;;;;;5017123;28;20448;-79
2020/12/06 00:12:29;;;;;;;72.67;40.17;;;1.20;99.90;;;;;;5024538;28;20479;-80
2020/12/06 00:14:57;;;;;;;68.57;40.47;;;1.20;99.90;;;;;;5015599;28;20478;-82
2020/12/06 00:17:24;;;;;;;72.10;40.67;;;1.10;99.90;;;;;;5014064;28;20545;-80
2020/12/06 00:19:50;;;;;;;65.10;37.87;;;1.10;99.90;;;;;;5016316;28;20429;-80
2020/12/06 00:22:17;;;;;;;64.50;40.27;;;1.10;99.90;;;;;;5015792;28;20448;-79
2020/12/06 00:24:43;;;;;;;71.17;39.77;;;1.10;99.90;;;;;;5015845;28;20439;-81
2020/12/06 00:27:10;;;;;;;71.20;42.07;;;1.10;99.90;;;;;;5014297;28;20460;-79
2020/12/06 00:29:36;;;;;;;72.57;42.43;;;1.10;99.90;;;;;;5015801;28;20448;-81
2020/12/06 00:32:03;;;;;;;66.83;41.37;;;1.10;99.90;;;;;;5014607;28;20499;-79
2020/12/06 00:34:30;;;;;;;74.67;41.97;;;1.20;99.90;;;;;;5016608;28;20475;-82
2020/12/06 00:36:56;;;;;;;67.73;39.90;;;1.10;99.90;;;;;;5017467;28;20478;-85
2020/12/06 00:39:23;;;;;;;73.00;40.60;;;1.10;99.90;;;;;;5016853;28;20621;-82
2020/12/06 00:41:49;;;;;;;62.73;39.90;;;1.10;99.90;;;;;;5017997;28;20456;-79
2020/12/06 00:44:16;;;;;;;67.27;40.40;;;1.10;99.90;;;;;;5015556;28;20461;-81
2020/12/06 00:46:43;;;;;;;66.87;40.53;;;1.10;99.90;;;;;;5019804;28;20463;-79
2020/12/06 00:49:09;;;;;;;75.43;40.93;;;1.10;99.90;;;;;;5016799;28;20450;-79
2020/12/06 00:51:37;;;;;;;67.27;41.00;;;1.20;99.90;;;;;;5017557;28;20778;-80
2020/12/06 00:54:03;;;;;;;66.07;41.33;;;1.10;99.90;;;;;;5005467;28;20491;-79
2020/12/06 00:56:29;;;;;;;71.03;40.43;;;1.10;99.90;;;;;;5016225;28;20456;-82
2020/12/06 00:58:56;;;;;;;72.60;40.20;;;1.10;99.90;;;;;;5014440;28;20833;-79
2020/12/06 01:01:23;;;;;;;75.33;42.17;;;1.10;99.90;;;;;;5015781;28;20456;-78
2020/12/06 01:03:49;;;;;;;76.00;39.80;;;1.10;99.90;;;;;;5019725;28;20442;-79
2020/12/06 01:06:17;;;;;;;72.83;40.70;;;1.20;99.90;;;;;;5015995;28;20453;-79
2020/12/06 01:08:45;;;;;;;68.80;39.50;;;1.20;99.90;;;;;;5013822;28;20500;-80
2020/12/06 01:11:12;;;;;;;65.00;39.83;;;1.10;99.90;;;;;;5014821;28;20536;-78
2020/12/06 01:13:39;;;;;;;63.00;40.23;;;1.20;99.90;;;;;;5015042;28;20488;-79
2020/12/06 01:16:05;;;;;;;69.80;40.77;;;1.20;99.90;;;;;;5020138;28;20511;-80
2020/12/06 01:18:32;;;;;;;63.73;40.60;;;1.30;99.90;;;;;;5015795;28;20456;-78
2020/12/06 01:20:58;;;;;;;65.60;39.80;;;1.20;99.90;;;;;;5016791;28;20442;-79
2020/12/06 01:23:25;;;;;;;70.13;40.47;;;1.30;99.90;;;;;;5018934;28;20440;-80
2020/12/06 01:25:52;;;;;;;74.37;40.33;;;1.30;99.90;;;;;;5015599;28;20477;-78
2020/12/06 01:28:18;;;;;;;66.57;38.50;;;1.30;99.90;;;;;;5012231;28;20453;-79
2020/12/06 01:30:45;;;;;;;64.77;39.03;;;1.30;99.90;;;;;;5015442;28;20932;-85
2020/12/06 01:33:11;;;;;;;64.33;39.47;;;1.40;99.90;;;;;;5013184;28;20891;-85
2020/12/06 01:35:37;;;;;;;67.47;39.07;;;1.40;99.90;;;;;;5007928;28;20475;-79
2020/12/06 01:38:04;;;;;;;58.73;37.77;;;1.30;99.90;;;;;;5017267;28;20467;-79
2020/12/06 01:40:30;;;;;;;55.67;37.77;;;1.20;99.90;;;;;;5019239;28;20476;-81
2020/12/06 01:42:58;;;;;;;62.37;36.80;;;1.20;99.90;;;;;;5020704;28;20451;-81
2020/12/06 01:45:24;;;;;;;57.33;37.87;;;1.20;99.90;;;;;;5020528;28;20545;-79
2020/12/06 01:47:51;;;;;;;63.97;39.13;;;1.20;99.90;;;;;;5018340;28;20491;-81
2020/12/06 01:50:19;;;;;;;58.27;37.53;;;1.20;99.90;;;;;;5016997;28;21064;-83
2020/12/06 01:52:47;;;;;;;56.43;36.30;;;1.20;99.90;;;;;;5018006;28;20496;-81
2020/12/06 01:55:14;;;;;;;57.23;37.03;;;1.10;99.90;;;;;;5019578;28;20467;-83
2020/12/06 01:57:40;;;;;;;54.00;35.67;;;1.10;99.90;;;;;;5027327;28;20602;-84
2020/12/06 02:00:08;;;;;;;54.83;36.03;;;1.00;99.90;;;;;;5030984;28;20453;-83
2020/12/06 02:02:35;;;;;;;64.50;40.13;;;1.00;99.90;;;;;;5028851;28;20498;-79
2020/12/06 02:05:03;;;;;;;58.10;37.40;;;1.00;99.90;;;;;;5023968;28;20449;-81
2020/12/06 02:07:31;;;;;;;63.73;38.73;;;1.00;99.90;;;;;;5019035;28;20518;-78
2020/12/06 02:09:57;;;;;;;57.90;36.00;;;1.00;99.90;;;;;;5019994;28;20538;-79
2020/12/06 02:12:24;;;;;;;64.27;38.57;;;1.00;99.90;;;;;;5017784;28;20484;-79
2020/12/06 02:14:50;;;;;;;62.73;38.47;;;0.90;99.90;;;;;;5018970;28;20492;-84
2020/12/06 02:17:17;;;;;;;63.63;38.90;;;1.00;99.90;;;;;;5010751;28;20454;-79
2020/12/06 02:19:44;;;;;;;64.47;37.87;;;1.00;99.90;;;;;;5018580;28;20492;-80
2020/12/06 02:22:11;;;;;;;59.17;37.70;;;1.00;99.90;;;;;;5016427;28;20503;-82
2020/12/06 02:24:37;;;;;;;71.60;39.93;;;1.00;99.90;;;;;;5017790;28;20520;-81
2020/12/06 02:27:04;;;;;;;64.00;39.10;;;0.90;99.90;;;;;;5016080;28;20652;-79
2020/12/06 02:29:30;;;;;;;68.00;40.40;;;1.00;99.90;;;;;;5023684;28;20482;-81
2020/12/06 02:31:56;;;;;;;60.97;35.77;;;1.00;99.90;;;;;;5024268;28;20458;-83
2020/12/06 02:34:23;;;;;;;67.80;37.30;;;0.90;99.90;;;;;;5015117;28;20486;-83
2020/12/06 02:36:49;;;;;;;72.33;40.70;;;0.90;99.90;;;;;;5029534;28;20439;-80
2020/12/06 02:39:17;;;;;;;71.90;40.17;;;0.90;99.90;;;;;;5029682;28;20437;-81
2020/12/06 02:41:44;;;;;;;64.83;39.43;;;0.80;99.90;;;;;;5024512;28;20480;-88
2020/12/06 02:44:12;;;;;;;67.93;39.10;;;0.90;99.90;;;;;;5015875;28;20518;-81
2020/12/06 02:46:39;;;;;;;63.57;38.00;;;0.80;99.90;;;;;;4996197;28;20489;-80
2020/12/06 02:49:06;;;;;;;64.77;38.90;;;0.80;99.90;;;;;;5011876;28;20548;-80
2020/12/06 02:51:33;;;;;;;65.97;38.80;;;0.90;99.90;;;;;;5015652;28;20443;-79
2020/12/06 02:54:00;;;;;;;57.60;36.10;;;0.90;99.90;;;;;;5014472;28;21036;-81
2020/12/06 02:56:27;;;;;;;63.73;36.70;;;1.00;99.90;;;;;;5018065;28;20457;-82
2020/12/06 02:58:53;;;;;;;71.13;38.77;;;1.00;99.90;;;;;;5021501;28;20459;-84
2020/12/06 03:01:20;;;;;;;63.33;38.33;;;1.00;99.90;;;;;;5015306;28;21044;-78
2020/12/06 03:03:47;;;;;;;59.03;38.50;;;1.10;99.90;;;;;;5013850;28;20499;-80
2020/12/06 03:06:13;;;;;;;56.63;36.30;;;1.00;99.90;;;;;;5015281;28;20449;-79
2020/12/06 03:08:40;;;;;;;59.00;37.00;;;1.10;99.90;;;;;;5013417;28;20476;-79
2020/12/06 03:11:07;;;;;;;51.97;33.63;;;1.20;99.90;;;;;;5014468;28;20445;-78
2020/12/06 03:13:35;;;;;;;61.67;35.83;;;1.20;99.90;;;;;;5011073;28;20476;-79
2020/12/06 03:16:01;;;;;;;58.20;35.80;;;1.30;99.90;;;;;;5014307;28;20546;-78
2020/12/06 03:18:28;;;;;;;56.23;36.63;;;1.30;99.90;;;;;;5012873;28;20921;-78
2020/12/06 03:20:54;;;;;;;61.97;37.27;;;1.30;99.90;;;;;;5015058;28;20452;-78
2020/12/06 03:23:21;;;;;;;58.30;35.50;;;1.30;99.90;;;;;;5015091;28;20499;-83
2020/12/06 03:25:47;;;;;;;55.90;34.53;;;1.30;99.90;;;;;;5013482;28;20532;-79
2020/12/06 03:28:13;;;;;;;59.90;35.17;;;1.30;99.90;;;;;;5014867;28;20547;-78
2020/12/06 03:30:41;;;;;;;56.73;34.63;;;1.40;99.90;;;;;;5013739;28;21039;-78
2020/12/06 03:33:07;;;;;;;51.70;34.90;;;1.40;99.90;;;;;;5009628;28;21046;-86
2020/12/06 03:35:34;;;;;;;54.70;32.60;;;1.40;99.90;;;;;;5018285;28;20457;-81
2020/12/06 03:38:00;;;;;;;51.17;33.43;;;1.50;99.90;;;;;;5022299;28;20483;-79
2020/12/06 03:40:26;;;;;;;48.83;33.90;;;1.50;99.90;;;;;;5023855;28;20482;-81
2020/12/06 03:42:53;;;;;;;58.40;34.47;;;1.50;99.90;;;;;;5025808;28;20446;-85
2020/12/06 03:45:20;;;;;;;55.30;32.60;;;1.50;99.90;;;;;;5025941;28;20514;-80
2020/12/06 03:47:48;;;;;;;46.73;32.40;;;1.60;99.90;;;;;;5026878;28;20447;-79
2020/12/06 03:50:14;;;;;;;51.87;33.53;;;1.60;99.90;;;;;;5018026;28;20544;-82
2020/12/06 03:52:41;;;;;;;46.73;32.80;;;1.60;99.90;;;;;;5018296;28;20588;-80
2020/12/06 03:55:07;;;;;;;46.83;32.20;;;1.60;99.90;;;;;;5008014;28;20451;-80
2020/12/06 03:57:34;;;;;;;51.23;31.37;;;1.50;99.90;;;;;;5015591;28;20484;-83
2020/12/06 04:00:00;;;;;;;48.77;31.17;;;1.50;99.90;;;;;;5014609;28;20480;-80
2020/12/06 04:02:26;;;;;;;51.90;32.10;;;1.50;99.90;;;;;;5009486;28;20472;-80
2020/12/06 04:04:54;;;;;;;47.03;32.30;;;1.60;99.90;;;;;;5016039;28;20472;-79
2020/12/06 04:07:20;;;;;;;46.07;30.60;;;1.60;99.90;;;;;;5013471;28;20452;-80
2020/12/06 04:09:46;;;;;;;46.97;30.53;;;1.60;99.90;;;;;;5014495;28;20477;-82
2020/12/06 04:12:13;;;;;;;46.37;30.10;;;1.50;99.90;;;;;;5012681;28;20870;-80
2020/12/06 04:14:39;;;;;;;46.53;31.30;;;1.50;99.90;;;;;;5014067;28;20493;-81
2020/12/06 04:17:06;;;;;;;48.47;32.00;;;1.50;99.90;;;;;;5015482;28;20508;-80
2020/12/06 04:19:32;;;;;;;46.17;32.07;;;1.50;99.90;;;;;;5016428;28;20510;-79
2020/12/06 04:21:59;;;;;;;46.20;32.73;;;1.50;99.90;;;;;;5012280;28;20456;-82
2020/12/06 04:24:26;;;;;;;45.53;31.43;;;1.50;99.90;;;;;;5015538;28;20958;-79
2020/12/06 04:26:52;;;;;;;48.90;31.60;;;1.40;99.90;;;;;;5013978;28;20452;-79
2020/12/06 04:29:18;;;;;;;46.20;32.00;;;1.50;99.90;;;;;;5014737;28;20480;-81
2020/12/06 04:31:45;;;;;;;45.27;29.00;;;1.40;99.90;;;;;;5014560;28;20461;-81
2020/12/06 04:34:11;;;;;;;46.13;30.80;;;1.40;99.90;;;;;;5014130;28;20559;-80
2020/12/06 04:36:38;;;;;;;47.57;32.17;;;1.30;99.90;;;;;;5026680;28;20456;-80
2020/12/06 04:39:05;;;;;;;42.10;30.23;;;1.30;99.90;;;;;;5023043;28;20531;-80
2020/12/06 04:41:31;;;;;;;48.27;31.80;;;1.30;99.90;;;;;;5012413;28;20935;-83
2020/12/06 04:43:58;;;;;;;43.23;30.03;;;1.30;99.90;;;;;;5013256;28;20428;-81
2020/12/06 04:46:26;;;;;;;46.53;30.47;;;1.30;99.90;;;;;;5015389;28;20514;-80
2020/12/06 04:49:07;;;;;;;52.60;31.43;;;1.30;99.90;;;;;;4996613;28;20630;-79
2020/12/06 04:51:40;;;;;;;45.93;31.10;;;1.20;99.90;;;;;;5013788;28;20539;-83
2020/12/06 04:54:08;;;;;;;52.00;33.33;;;1.10;99.90;;;;;;5012217;28;20484;-82
2020/12/06 04:56:37;;;;;;;51.23;32.20;;;1.10;99.90;;;;;;5002459;28;20519;-81
2020/12/06 04:59:04;;;;;;;56.93;34.83;;;1.10;99.90;;;;;;5010546;28;20529;-79
2020/12/06 05:01:34;;;;;;;52.87;32.90;;;1.00;99.90;;;;;;5013815;28;20528;-82
2020/12/06 05:04:10;;;;;;;57.50;35.10;;;1.10;99.90;;;;;;5013414;28;20458;-80
2020/12/06 05:06:39;;;;;;;49.63;31.60;;;1.10;99.90;;;;;;5016930;28;20441;-84
2020/12/06 05:09:09;;;;;;;51.70;33.53;;;1.00;99.90;;;;;;5011430;28;20453;-80
2020/12/06 05:11:36;;;;;;;48.07;33.03;;;1.10;99.90;;;;;;5019890;28;20448;-79
2020/12/06 05:14:05;;;;;;;57.07;35.07;;;1.00;99.90;;;;;;5014169;28;20582;-83
2020/12/06 05:16:33;;;;;;;51.70;34.97;;;1.00;99.90;;;;;;5015352;28;20447;-79
2020/12/06 05:19:00;;;;;;;53.30;33.87;;;1.00;99.90;;;;;;5013551;28;20527;-81
2020/12/06 05:21:34;;;;;;;58.50;34.40;;;0.90;99.90;;;;;;5015486;28;20441;-83
2020/12/06 05:24:00;;;;;;;59.03;36.43;;;0.90;99.90;;;;;;5020297;28;20453;-83
2020/12/06 05:26:27;;;;;;;55.50;34.90;;;0.90;99.90;;;;;;5023408;28;20524;-85
2020/12/06 05:28:54;;;;;;;48.60;33.60;;;0.90;99.90;;;;;;5023808;28;20547;-80
2020/12/06 05:31:22;;;;;;;56.23;35.57;;;0.90;99.90;;;;;;5024357;28;20458;-79
2020/12/06 05:33:48;;;;;;;61.20;36.40;;;0.80;99.90;;;;;;5022681;28;21035;-84
2020/12/06 05:36:15;;;;;;;52.80;35.00;;;0.80;99.90;;;;;;5016439;28;20477;-80
2020/12/06 05:38:42;;;;;;;69.93;38.53;;;0.70;99.90;;;;;;5012796;28;20538;-81
2020/12/06 05:41:08;;;;;;;64.57;37.90;;;0.60;99.90;;;;;;5012892;28;20442;-79
2020/12/06 05:43:36;;;;;;;63.63;38.13;;;0.60;99.90;;;;;;5014549;28;20476;-79
2020/12/06 05:46:06;;;;;;;64.07;38.90;;;0.60;99.90;;;;;;5013691;28;20898;-80
2020/12/06 05:48:33;;;;;;;58.23;37.63;;;0.70;99.90;;;;;;5014625;28;20787;-79
2020/12/06 05:51:00;;;;;;;64.03;37.50;;;0.70;99.90;;;;;;5013261;28;20481;-82
2020/12/06 05:53:28;;;;;;;62.67;39.00;;;0.70;99.90;;;;;;5013927;28;20543;-80
2020/12/06 05:56:00;;;;;;;61.07;39.67;;;0.60;99.90;;;;;;5009677;28;20486;-80
2020/12/06 05:58:26;;;;;;;63.60;38.17;;;0.70;99.90;;;;;;5014936;28;20519;-79
2020/12/06 06:00:57;;;;;;;54.33;36.80;;;0.70;99.90;;;;;;5013856;28;20440;-79
2020/12/06 06:03:28;;;;;;;59.10;35.60;;;0.70;99.90;;;;;;5023650;28;20505;-82
2020/12/06 06:05:56;;;;;;;58.13;36.07;;;0.60;99.90;;;;;;5033681;28;20481;-80
2020/12/06 06:08:26;;;;;;;62.00;38.13;;;0.70;99.90;;;;;;5025737;28;20461;-79
2020/12/06 06:11:19;;;;;;;66.83;37.53;;;0.60;99.90;;;;;;5015978;28;20559;-79
2020/12/06 06:13:51;;;;;;;55.87;34.43;;;0.70;99.90;;;;;;5007052;28;20533;-80
2020/12/06 06:16:20;;;;;;;59.20;37.37;;;0.70;99.90;;;;;;5002763;28;20445;-79
2020/12/06 06:18:48;;;;;;;54.50;35.87;;;0.60;99.90;;;;;;5012511;28;20440;-79
2020/12/06 06:21:16;;;;;;;63.30;38.57;;;0.70;99.90;;;;;;5013121;28;20871;-83
2020/12/06 06:23:44;;;;;;;64.87;37.50;;;0.70;99.90;;;;;;5013355;28;20451;-79
2020/12/06 06:26:12;;;;;;;64.63;37.60;;;0.60;99.90;;;;;;5009350;28;20538;-81
2020/12/06 06:28:40;;;;;;;57.70;36.23;;;0.60;99.90;;;;;;5008834;28;20513;-83
2020/12/06 06:31:11;;;;;;;67.63;39.20;;;0.60;99.90;;;;;;5009424;28;20483;-81
2020/12/06 06:33:39;;;;;;;69.10;38.33;;;0.60;99.90;;;;;;5013558;28;20490;-81
2020/12/06 06:36:07;;;;;;;59.47;37.17;;;0.60;99.90;;;;;;5011548;28;20488;-80
2020/12/06 06:38:39;;;;;;;64.77;38.83;;;0.60;99.90;;;;;;5012193;28;20482;-80
2020/12/06 06:41:06;;;;;;;60.97;37.13;;;0.60;99.90;;;;;;5012285;28;20539;-90
2020/12/06 06:43:34;;;;;;;57.70;37.30;;;0.60;99.90;;;;;;5011465;28;20458;-81
2020/12/06 06:46:11;;;;;;;63.27;39.80;;;0.60;99.90;;;;;;5019473;28;20557;-80
2020/12/06 06:48:38;;;;;;;68.73;40.33;;;0.60;99.90;;;;;;5015052;28;21218;-78
2020/12/06 06:51:05;;;;;;;68.53;40.87;;;0.50;99.90;;;;;;5017909;28;20447;-79
2020/12/06 06:53:31;;;;;;;64.87;39.77;;;0.60;99.90;;;;;;5019188;28;20499;-80
2020/12/06 06:56:00;;;;;;;62.87;39.87;;;0.60;99.90;;;;;;5019900;28;20532;-80
2020/12/06 06:58:29;;;;;;;66.10;39.63;;;0.60;99.90;;;;;;5012226;28;20462;-82
2020/12/06 07:01:19;;;;;;;68.73;39.27;;;0.60;99.90;;;;;;5020746;28;20478;-80
2020/12/06 07:03:47;;;;;;;59.90;35.77;;;0.60;99.90;;;;;;5024092;28;20480;-84
2020/12/06 07:06:46;;;;;;;68.33;40.30;;;0.60;99.90;;;;;;5021409;28;20550;-80
2020/12/06 07:09:12;;;;;;;62.40;37.90;;;0.50;99.90;;;;;;5020080;28;20471;-82
2020/12/06 07:11:39;;;;;;;64.03;39.67;;;0.60;99.90;;;;;;5013954;28;20950;-80
2020/12/06 07:14:06;;;;;;;63.27;39.87;;;0.60;99.90;;;;;;5021003;28;20481;-80
2020/12/06 07:16:32;;;;;;;65.93;39.50;;;0.80;99.90;;;;;;5016575;28;20480;-79
2020/12/06 07:19:00;;;;;;;57.93;40.30;;;0.80;99.90;;;;;;5023634;28;21031;-85
2020/12/06 07:21:34;;;;;;;70.40;43.10;;;0.90;99.90;;;;;;5029382;28;20446;-82
2020/12/06 07:24:01;;;;;;;69.53;42.87;;;0.90;99.90;;;;;;5019021;28;20457;-83
2020/12/06 07:26:28;;;;;;;63.43;39.83;;;0.90;99.90;;;;;;5006121;28;21504;-84
2020/12/06 07:28:55;;;;;;;62.40;38.90;;;1.00;99.90;;;;;;5010473;28;20973;-79
2020/12/06 07:31:22;;;;;;;72.70;42.90;;;1.10;99.90;;;;;;5019343;28;20481;-79
2020/12/06 07:33:48;;;;;;;72.67;44.17;;;1.20;99.90;;;;;;5024219;28;20526;-79
2020/12/06 07:36:16;;;;;;;69.53;41.53;;;1.20;99.90;;;;;;5018150;28;20467;-79
2020/12/06 07:38:43;;;;;;;70.17;43.17;;;1.30;99.90;;;;;;5017378;28;20451;-82
2020/12/06 07:41:10;;;;;;;75.07;44.03;;;1.40;99.90;;;;;;5018919;28;20444;-80
2020/12/06 07:43:38;;;;;;;69.80;41.83;;;1.40;99.90;;;;;;5015418;28;20453;-81
2020/12/06 07:46:15;;;;;;;69.37;41.33;;;1.50;99.90;;;;;;5016406;28;20980;-79
2020/12/06 07:48:41;;;;;;;67.40;42.13;;;1.50;99.90;;;;;;5015669;28;20456;-80
2020/12/06 07:51:08;;;;;;;59.70;41.00;;;1.40;99.90;;;;;;5018836;28;20455;-81
2020/12/06 07:53:49;;;;;;;70.60;40.50;;;1.30;99.90;;;;;;5017374;28;20480;-79
2020/12/06 07:56:21;;;;;;;60.30;39.83;;;1.30;99.90;;;;;;5017426;28;20466;-80
2020/12/06 07:59:00;;;;;;;61.50;37.33;;;1.30;99.90;;;;;;5016928;28;20466;-81
2020/12/06 08:01:28;;;;;;;61.00;40.43;;;1.40;99.90;;;;;;5005718;28;21015;-79
2020/12/06 08:03:56;;;;;;;66.60;41.83;;;1.30;99.90;;;;;;5017339;28;20448;-81
2020/12/06 08:06:26;;;;;;;61.73;41.43;;;1.30;99.90;;;;;;5016750;28;20550;-82
2020/12/06 08:08:57;;;;;;;59.87;39.97;;;1.30;99.90;;;;;;5018883;28;20451;-80
2020/12/06 08:11:30;;;;;;;60.83;40.50;;;1.40;99.90;;;;;;5010945;28;20881;-79
2020/12/06 08:13:57;;;;;;;59.80;40.13;;;1.40;99.90;;;;;;5017186;28;21058;-79
2020/12/06 08:16:24;;;;;;;58.50;39.27;;;1.40;99.90;;;;;;5025454;28;20464;-80
2020/12/06 08:18:58;;;;;;;57.20;38.27;;;1.40;99.90;;;;;;5024359;28;20434;-81
2020/12/06 08:21:25;;;;;;;55.53;37.70;;;1.40;99.90;;;;;;5023291;28;20447;-79
2020/12/06 08:23:51;;;;;;;51.30;36.57;;;1.50;99.90;;;;;;5021703;28;20521;-91
2020/12/06 08:26:18;;;;;;;52.37;37.20;;;1.70;99.90;;;;;;5026481;28;20469;-79
2020/12/06 08:28:50;;;;;;;55.80;38.23;;;1.50;98.80;;;;;;5023500;28;20447;-84
2020/12/06 08:31:20;;;;;;;56.77;37.60;;;1.50;98.80;;;;;;5018421;28;20480;-86
2020/12/06 08:33:47;;;;;;;56.90;36.70;;;1.60;99.90;;;;;;5017997;28;20988;-79
2020/12/06 08:36:23;;;;;;;52.43;37.53;;;1.70;99.90;;;;;;5018199;28;20464;-80
2020/12/06 08:38:50;;;;;;;55.17;38.87;;;1.80;99.90;;;;;;5011122;28;20808;-79
2020/12/06 08:41:23;;;;;;;53.57;35.87;;;1.80;98.70;;;;;;5008771;28;20475;-79
2020/12/06 08:43:52;;;;;;;52.97;36.00;;;2.00;97.70;;;;;;5016500;28;20473;-80
2020/12/06 08:46:20;;;;;;;51.27;35.97;;;2.00;96.50;;;;;;5014472;28;20489;-81
2020/12/06 08:48:47;;;;;;;49.00;35.30;;;2.10;96.50;;;;;;5014770;28;20968;-80
2020/12/06 08:51:25;;;;;;;50.37;33.77;;;2.10;95.20;;;;;;5015429;28;20458;-80
2020/12/06 08:53:52;;;;;;;48.10;32.33;;;2.20;95.10;;;;;;5010594;28;20472;-80
2020/12/06 08:56:27;;;;;;;49.23;33.83;;;2.10;93.80;;;;;;5018799;28;21038;-80
2020/12/06 08:58:56;;;;;;;46.37;32.73;;;2.10;94.60;;;;;;5018234;28;20520;-81
2020/12/06 09:01:22;;;;;;;43.70;33.73;;;2.20;94.60;;;;;;5021437;28;20458;-81
2020/12/06 09:03:49;;;;;;;46.63;33.17;;;2.30;93.60;;;;;;5019778;28;20825;-82
2020/12/06 09:06:16;;;;;;;48.10;32.23;;;2.20;92.80;;;;;;5023341;28;21108;-80
2020/12/06 09:08:42;;;;;;;49.33;33.63;;;2.10;92.40;;;;;;5021981;28;20538;-83
2020/12/06 09:11:14;;;;;;;39.20;30.03;;;2.10;92.80;;;;;;5020575;28;20437;-79
2020/12/06 09:13:41;;;;;;;41.83;31.63;;;2.30;92.60;;;;;;5015382;28;20542;-79
2020/12/06 09:16:08;;;;;;;43.20;30.83;;;2.30;92.60;;;;;;5017785;28;20543;-78
2020/12/06 09:18:35;;;;;;;39.03;29.03;;;2.30;92.20;;;;;;5030075;28;20862;-79
2020/12/06 09:21:03;;;;;;;35.80;28.57;;;2.30;92.20;;;;;;5020483;28;20509;-80
2020/12/06 09:23:30;;;;;;;35.00;28.03;;;2.30;91.50;;;;;;5017977;28;20449;-80
2020/12/06 09:25:58;;;;;;;34.30;27.73;;;2.40;91.40;;;;;;5021794;28;20467;-81
2020/12/06 09:28:25;;;;;;;36.23;28.00;;;2.30;90.20;;;;;;5021019;28;20458;-80
2020/12/06 09:30:51;;;;;;;35.60;27.80;;;2.30;91.10;;;;;;5014104;28;20815;-78
2020/12/06 09:33:19;;;;;;;35.33;28.40;;;2.40;91.30;;;;;;5017295;28;20513;-80
2020/12/06 09:35:45;;;;;;;36.63;27.87;;;2.50;90.70;;;;;;5016382;28;20469;-80
2020/12/06 09:38:11;;;;;;;34.63;27.07;;;2.50;90.40;;;;;;5016837;28;20482;-79
2020/12/06 09:40:38;;;;;;;37.77;28.90;;;2.50;90.00;;;;;;5018960;28;20488;-80
2020/12/06 09:43:04;;;;;;;33.63;26.50;;;2.40;89.80;;;;;;5019548;28;20479;-79
2020/12/06 09:45:31;;;;;;;31.60;25.70;;;2.60;89.40;;;;;;5031645;28;20433;-79
2020/12/06 09:47:57;;;;;;;37.70;27.47;;;2.50;88.80;;;;;;5020317;28;20591;-79
2020/12/06 09:50:24;;;;;;;35.80;27.67;;;2.60;89.40;;;;;;5018292;28;20450;-79
2020/12/06 09:52:51;;;;;;;34.30;26.67;;;2.70;88.80;;;;;;5017765;28;20524;-81
2020/12/06 09:55:17;;;;;;;36.43;27.00;;;2.70;88.10;;;;;;5017983;28;20576;-80
2020/12/06 09:57:43;;;;;;;37.17;26.23;;;2.70;88.60;;;;;;5020025;28;20472;-84
2020/12/06 10:00:10;;;;;;;32.43;26.03;;;2.80;88.10;;;;;;5022117;28;20493;-85
2020/12/06 10:02:36;;;;;;;33.27;26.17;;;2.70;87.30;;;;;;5027281;28;20485;-82
2020/12/06 10:05:03;;;;;;;32.77;26.47;;;2.80;86.70;;;;;;5028391;28;20450;-80
2020/12/06 10:07:30;;;;;;;34.23;26.30;;;2.80;86.30;;;;;;5027141;28;20450;-81
2020/12/06 10:09:57;;;;;;;37.40;25.40;;;2.90;85.60;;;;;;5026460;28;20453;-80
2020/12/06 10:12:23;;;;;;;33.80;24.60;;;2.80;85.50;;;;;;5022786;28;20439;-79
2020/12/06 10:14:54;;;;;;;32.17;25.63;;;2.70;86.40;;;;;;5028447;28;20624;-85
2020/12/06 10:17:21;;;;;;;30.13;24.20;;;2.70;86.30;;;;;;5032501;28;20458;-81
2020/12/06 10:19:47;;;;;;;35.50;25.77;;;2.80;86.80;;;;;;5028212;28;20453;-82
2020/12/06 10:22:13;;;;;;;33.93;24.80;;;2.80;87.70;;;;;;5031519;28;20770;-80
2020/12/06 10:24:41;;;;;;;31.90;25.93;;;2.90;87.20;;;;;;5024291;28;20852;-82
2020/12/06 10:27:07;;;;;;;31.73;25.00;;;3.00;85.20;;;;;;5022843;28;20829;-82
2020/12/06 10:29:34;;;;;;;34.37;25.90;;;3.10;85.00;;;;;;5021114;28;20461;-79
2020/12/06 10:32:00;;;;;;;32.80;25.43;;;2.90;84.10;;;;;;5022167;28;20496;-80
2020/12/06 10:34:28;;;;;;;34.63;25.47;;;2.70;85.90;;;;;;5024699;28;20527;-80
2020/12/06 10:36:55;;;;;;;31.40;24.13;;;2.70;86.50;;;;;;5023412;28;20481;-79
2020/12/06 10:39:23;;;;;;;38.90;28.07;;;2.70;87.40;;;;;;5021058;28;20990;-80
2020/12/06 10:41:52;;;;;;;36.37;26.70;;;2.70;87.60;;;;;;5024278;28;20569;-86
2020/12/06 10:44:19;;;;;;;36.80;24.47;;;2.80;86.40;;;;;;5021650;28;20444;-81
2020/12/06 10:46:46;;;;;;;34.20;25.00;;;3.00;85.40;;;;;;5021327;28;20471;-83
2020/12/06 10:49:16;;;;;;;31.83;24.83;;;2.90;85.00;;;;;;5023587;28;20897;-81
2020/12/06 10:51:43;;;;;;;35.30;26.67;;;3.10;83.60;;;;;;5015315;28;20510;-84
2020/12/06 10:54:10;;;;;;;34.10;24.83;;;3.30;84.10;;;;;;5024282;28;20489;-79
2020/12/06 10:56:37;;;;;;;35.53;26.87;;;3.20;83.10;;;;;;5025011;28;20452;-81
2020/12/06 10:59:11;;;;;;;41.73;31.83;;;3.20;83.60;;;;;;5024447;28;20953;-81
2020/12/06 11:01:38;;;;;;;36.03;28.83;;;3.20;83.80;;;;;;5021997;28;20460;-80
2020/12/06 11:04:05;;;;;;;32.30;26.00;;;3.30;82.40;;;;;;5025538;28;20485;-79
2020/12/06 11:06:33;;;;;;;34.40;26.60;;;3.40;82.20;;;;;;5028005;28;20486;-84
2020/12/06 11:09:00;;;;;;;34.53;26.30;;;3.50;81.40;;;;;;5029602;28;20539;-81
2020/12/06 11:11:27;;;;;;;39.10;28.47;;;3.40;81.80;;;;;;5033942;28;20473;-84
2020/12/06 11:13:53;;;;;;;34.73;26.50;;;3.60;82.00;;;;;;5048470;28;20476;-81
2020/12/06 11:16:22;;;;;;;35.30;26.73;;;3.60;80.40;;;;;;5039849;28;20495;-81
2020/12/06 11:18:52;;;;;;;36.30;26.20;;;3.70;80.50;;;;;;5028778;28;20530;-81
2020/12/06 11:21:20;;;;;;;34.43;25.63;;;3.70;79.40;;;;;;5024709;28;20465;-82
2020/12/06 11:23:48;;;;;;;34.67;26.07;;;3.60;79.70;;;;;;5024346;28;20451;-81
2020/12/06 11:26:15;;;;;;;37.67;28.80;;;3.80;80.00;;;;;;5023741;28;20475;-80
2020/12/06 11:28:42;;;;;;;32.80;27.20;;;4.00;79.80;;;;;;5023928;28;20519;-84
2020/12/06 11:31:10;;;;;;;36.37;27.13;;;4.00;78.90;;;;;;5023901;28;20454;-81
2020/12/06 11:33:37;;;;;;;33.27;26.50;;;3.90;78.80;;;;;;5025284;28;20522;-82
2020/12/06 11:36:04;;;;;;;32.07;25.00;;;3.70;79.10;;;;;;5022829;28;20476;-80
2020/12/06 11:38:33;;;;;;;32.30;26.30;;;3.60;79.50;;;;;;5015388;28;20464;-82
2020/12/06 11:40:59;;;;;;;33.57;26.50;;;3.50;80.10;;;;;;5023354;28;20474;-82
2020/12/06 11:43:26;;;;;;;34.77;27.70;;;3.50;80.10;;;;;;5024342;28;20458;-83
2020/12/06 11:45:52;;;;;;;35.17;28.30;;;3.50;80.30;;;;;;5025452;28;20484;-82
2020/12/06 11:48:19;;;;;;;36.60;27.00;;;3.40;80.70;;;;;;5016180;28;20552;-80
2020/12/06 11:50:47;;;;;;;32.50;25.43;;;3.50;80.60;;;;;;5020582;28;20443;-81
2020/12/06 11:53:15;;;;;;;36.70;26.50;;;3.50;80.70;;;;;;5019964;28;20475;-81
2020/12/06 11:55:42;;;;;;;35.00;26.47;;;3.50;80.20;;;;;;5017761;28;20477;-80
2020/12/06 11:58:09;;;;;;;37.67;28.33;;;3.40;80.30;;;;;;5003476;28;20467;-81
2020/12/06 12:00:35;;;;;;;38.27;28.43;;;3.30;81.30;;;;;;5019258;28;20575;-81
2020/12/06 12:03:01;;;;;;;35.97;27.43;;;3.30;82.20;;;;;;5021654;28;20537;-81
2020/12/06 12:05:28;;;;;;;37.80;28.73;;;3.20;81.80;;;;;;5022215;28;20508;-80
2020/12/06 12:07:55;;;;;;;40.63;29.10;;;3.20;82.10;;;;;;5023090;28;20457;-81
2020/12/06 12:10:22;;;;;;;35.90;27.50;;;3.30;82.70;;;;;;5020645;28;20462;-81
2020/12/06 12:12:48;;;;;;;35.80;27.80;;;3.30;82.00;;;;;;5013951;28;20546;-80
2020/12/06 12:15:15;;;;;;;37.13;28.07;;;3.40;81.30;;;;;;5003649;28;20475;-84
2020/12/06 12:17:41;;;;;;;39.90;28.63;;;3.40;81.00;;;;;;5020254;28;20438;-80
2020/12/06 12:20:09;;;;;;;41.40;27.43;;;3.50;81.00;;;;;;5021521;28;20454;-83
2020/12/06 12:22:36;;;;;;;38.90;27.83;;;3.50;80.70;;;;;;5024093;28;20460;-80
2020/12/06 12:25:04;;;;;;;39.13;28.20;;;3.40;81.00;;;;;;5020407;28;20476;-83
2020/12/06 12:27:31;;;;;;;38.43;29.30;;;3.40;81.90;;;;;;5033666;28;20563;-82
2020/12/06 12:29:59;;;;;;;44.40;30.90;;;3.30;81.60;;;;;;5020628;28;20487;-85
2020/12/06 12:32:25;;;;;;;39.30;29.37;;;3.20;82.20;;;;;;5022129;28;20454;-80
2020/12/06 12:34:52;;;;;;;41.83;30.40;;;3.20;82.90;;;;;;5022304;28;20458;-85
2020/12/06 12:37:19;;;;;;;42.10;29.53;;;3.20;83.20;;;;;;5028091;28;20463;-81